createdAt,value
2018-05-26T00:00:12.328Z,36.10
2018-05-26T00:02:39.776Z,36.10
2018-05-26T00:05:07.231Z,36.10
2018-05-26T00:07:34.693Z,36.20
2018-05-26T00:10:02.149Z,36.30
2018-05-26T00:12:29.612Z,36.40
2018-05-26T00:14:57.064Z,36.40
2018-05-26T00:17:24.523Z,36.50
2018-05-26T00:19:51.968Z,36.50
2018-05-26T00:22:19.427Z,36.50
2018-05-26T00:24:46.884Z,36.80
2018-05-26T00:27:14.340Z,36.80
2018-05-26T00:29:41.784Z,36.70
2018-05-26T00:32:10.015Z,36.80
2018-05-26T00:34:37.464Z,36.70
2018-05-26T00:37:04.924Z,36.80
2018-05-26T00:39:32.404Z,36.80
2018-05-26T00:41:59.860Z,36.80
2018-05-26T00:44:27.312Z,36.90
2018-05-26T00:46:54.767Z,36.90
2018-05-26T00:49:22.212Z,37.00
2018-05-26T00:51:49.664Z,37.00
2018-05-26T00:54:17.125Z,37.00
2018-05-26T00:56:44.581Z,37.00
2018-05-26T00:59:12.033Z,37.30
2018-05-26T01:01:39.501Z,37.20
2018-05-26T01:04:06.967Z,37.30
2018-05-26T01:06:34.424Z,37.40
2018-05-26T01:09:01.885Z,37.40
2018-05-26T01:11:29.344Z,37.40
2018-05-26T01:13:56.805Z,37.40
2018-05-26T01:16:24.268Z,37.50
2018-05-26T01:18:51.724Z,37.50
2018-05-26T01:21:19.172Z,37.60
2018-05-26T01:23:46.624Z,37.60
2018-05-26T01:26:14.088Z,37.80
2018-05-26T01:28:41.543Z,37.80
2018-05-26T01:31:09.008Z,37.80
2018-05-26T01:33:36.460Z,37.80
2018-05-26T01:36:03.916Z,37.80
2018-05-26T01:38:31.375Z,37.90
2018-05-26T01:40:58.832Z,38.00
2018-05-26T01:43:26.292Z,38.20
2018-05-26T01:45:53.747Z,38.30
2018-05-26T01:48:21.204Z,38.40
2018-05-26T01:50:48.644Z,38.20
2018-05-26T01:53:16.116Z,38.20
2018-05-26T01:55:43.570Z,38.40
2018-05-26T01:58:11.029Z,38.30
2018-05-26T02:00:38.487Z,38.40
2018-05-26T02:03:05.948Z,38.40
2018-05-26T02:05:33.403Z,38.50
2018-05-26T02:10:34.825Z,38.60
2018-05-26T02:13:02.276Z,38.60
2018-05-26T02:15:30.483Z,38.80
2018-05-26T02:17:57.955Z,38.80
2018-05-26T02:20:25.411Z,39.00
2018-05-26T02:22:52.880Z,39.20
2018-05-26T02:25:20.332Z,39.20
2018-05-26T02:27:47.798Z,39.20
2018-05-26T02:30:15.265Z,39.20
2018-05-26T02:32:44.243Z,39.30
2018-05-26T02:35:11.703Z,39.20
2018-05-26T02:37:39.160Z,39.20
2018-05-26T02:40:06.621Z,39.40
2018-05-26T02:42:34.079Z,39.50
2018-05-26T02:45:01.529Z,39.50
2018-05-26T02:47:28.997Z,40.20
2018-05-26T02:49:56.444Z,39.60
2018-05-26T02:52:23.913Z,39.70
2018-05-26T02:54:51.356Z,39.80
2018-05-26T02:57:18.816Z,39.90
2018-05-26T02:59:46.275Z,39.90
2018-05-26T03:02:14.495Z,40.00
2018-05-26T03:04:48.271Z,40.00
2018-05-26T03:07:21.443Z,40.10
2018-05-26T03:09:54.654Z,40.00
2018-05-26T03:12:27.907Z,40.70
2018-05-26T03:14:54.874Z,40.10
2018-05-26T03:17:28.271Z,40.20
2018-05-26T03:19:55.708Z,40.20
2018-05-26T03:22:23.937Z,40.40
2018-05-26T03:24:51.376Z,40.30
2018-05-26T03:27:18.848Z,40.50
2018-05-26T03:29:46.320Z,40.40
2018-05-26T03:32:14.532Z,40.50
2018-05-26T03:34:41.999Z,40.40
2018-05-26T03:37:09.431Z,40.60
2018-05-26T03:39:36.880Z,40.60
2018-05-26T03:42:04.329Z,40.70
2018-05-26T03:44:32.559Z,40.80
2018-05-26T03:47:00.773Z,40.90
2018-05-26T03:49:29.008Z,41.20
2018-05-26T03:51:56.457Z,41.00
2018-05-26T03:54:35.751Z,41.10
2018-05-26T03:57:15.793Z,41.10
2018-05-26T03:59:52.918Z,41.00
2018-05-26T04:02:20.376Z,41.60
2018-05-26T04:04:48.651Z,41.30
2018-05-26T04:07:16.869Z,41.50
2018-05-26T04:09:44.330Z,41.40
2018-05-26T04:12:12.536Z,41.60
2018-05-26T04:14:40.776Z,41.70
2018-05-26T04:17:08.236Z,41.60
2018-05-26T04:19:35.696Z,41.60
2018-05-26T04:22:03.151Z,41.50
2018-05-26T04:24:32.120Z,41.60
2018-05-26T04:26:59.577Z,42.10
2018-05-26T04:29:27.045Z,41.50
2018-05-26T04:31:54.495Z,41.50
2018-05-26T04:34:21.951Z,41.50
2018-05-26T04:36:49.411Z,41.30
2018-05-26T04:39:16.888Z,41.40
2018-05-26T04:41:44.343Z,41.50
2018-05-26T04:44:11.808Z,41.50
2018-05-26T04:46:40.771Z,41.60
2018-05-26T04:49:08.996Z,41.60
2018-05-26T04:51:37.225Z,41.60
2018-05-26T04:54:04.687Z,41.50
2018-05-26T04:56:32.153Z,41.60
2018-05-26T04:59:01.129Z,41.60
2018-05-26T05:01:28.591Z,41.60
2018-05-26T05:03:56.056Z,41.50
2018-05-26T05:06:23.506Z,41.50
2018-05-26T05:08:50.959Z,41.40
2018-05-26T05:11:19.175Z,41.40
2018-05-26T05:13:46.644Z,41.40
2018-05-26T05:16:14.847Z,41.30
2018-05-26T05:18:43.080Z,41.30
2018-05-26T05:21:10.543Z,41.20
2018-05-26T05:23:38.008Z,41.30
2018-05-26T05:26:06.216Z,41.30
2018-05-26T05:28:34.438Z,41.40
2018-05-26T05:31:01.888Z,41.30
2018-05-26T05:33:29.346Z,41.20
2018-05-26T05:35:56.811Z,41.20
2018-05-26T05:38:24.265Z,41.30
2018-05-26T05:40:51.715Z,41.10
2018-05-26T05:43:19.172Z,41.20
2018-05-26T05:45:46.640Z,41.30
2018-05-26T05:48:15.599Z,41.10
2018-05-26T05:50:43.073Z,41.20
2018-05-26T05:53:10.524Z,41.20
2018-05-26T05:55:37.980Z,41.10
2018-05-26T05:58:05.452Z,41.10
2018-05-26T06:00:32.931Z,41.00
2018-05-26T06:03:00.404Z,41.00
2018-05-26T06:05:28.640Z,40.80
2018-05-26T06:07:56.095Z,40.80
2018-05-26T06:10:23.565Z,40.80
2018-05-26T06:12:51.021Z,40.90
2018-05-26T06:15:18.532Z,40.80
2018-05-26T06:17:45.979Z,40.80
2018-05-26T06:20:13.500Z,40.80
2018-05-26T06:22:40.969Z,40.80
2018-05-26T06:25:09.192Z,41.10
2018-05-26T06:27:36.664Z,40.50
2018-05-26T06:30:04.108Z,40.40
2018-05-26T06:32:31.561Z,40.20
2018-05-26T06:34:59.015Z,40.10
2018-05-26T06:37:26.460Z,40.20
2018-05-26T06:39:53.908Z,40.10
2018-05-26T06:42:22.123Z,39.70
2018-05-26T06:44:49.590Z,39.60
2018-05-26T06:47:17.795Z,39.50
2018-05-26T06:49:45.259Z,39.50
2018-05-26T06:52:12.723Z,39.30
2018-05-26T06:54:40.946Z,39.20
2018-05-26T06:57:08.389Z,39.20
2018-05-26T06:59:35.843Z,38.90
2018-05-26T07:02:03.305Z,38.80
2018-05-26T07:04:30.772Z,38.80
2018-05-26T07:06:58.233Z,38.80
2018-05-26T07:09:25.686Z,38.60
2018-05-26T07:11:53.143Z,38.30
2018-05-26T07:14:20.606Z,37.90
2018-05-26T07:16:48.063Z,37.10
2018-05-26T07:19:15.519Z,36.80
2018-05-26T07:21:42.980Z,36.50
2018-05-26T07:24:11.198Z,36.00
2018-05-26T07:26:38.647Z,36.60
2018-05-26T07:29:06.102Z,35.60
2018-05-26T07:31:33.563Z,35.50
2018-05-26T07:34:01.025Z,35.40
2018-05-26T07:36:28.492Z,35.00
2018-05-26T07:38:56.712Z,35.10
2018-05-26T07:41:24.178Z,34.70
2018-05-26T07:43:51.631Z,34.40
2018-05-26T07:46:19.109Z,34.20
2018-05-26T07:48:47.314Z,33.90
2018-05-26T07:51:14.777Z,33.90
2018-05-26T07:53:42.992Z,33.80
2018-05-26T07:56:10.462Z,33.80
2018-05-26T07:58:37.921Z,33.50
2018-05-26T08:01:05.407Z,33.50
2018-05-26T08:03:32.897Z,33.30
2018-05-26T08:06:01.135Z,33.00
2018-05-26T08:08:28.579Z,33.00
2018-05-26T08:10:56.090Z,32.80
2018-05-26T08:13:23.503Z,32.80
2018-05-26T08:15:50.968Z,32.60
2018-05-26T08:18:18.519Z,32.70
2018-05-26T08:20:45.976Z,32.50
2018-05-26T08:23:13.444Z,32.60
2018-05-26T08:25:40.891Z,32.20
2018-05-26T08:28:08.348Z,32.10
2018-05-26T08:30:35.813Z,32.00
2018-05-26T08:33:03.264Z,31.90
2018-05-26T08:35:30.726Z,31.60
2018-05-26T08:37:58.204Z,31.50
2018-05-26T08:40:25.651Z,31.40
2018-05-26T08:42:53.101Z,31.20
2018-05-26T08:45:20.568Z,31.00
2018-05-26T08:47:48.023Z,31.00
2018-05-26T08:50:15.483Z,30.90
2018-05-26T08:52:42.948Z,30.90
2018-05-26T08:55:11.173Z,30.50
2018-05-26T08:57:38.631Z,30.50
2018-05-26T09:00:06.088Z,30.50
2018-05-26T09:02:33.552Z,30.40
2018-05-26T09:05:01.012Z,30.20
2018-05-26T09:07:28.476Z,30.00
2018-05-26T09:09:56.696Z,29.90
2018-05-26T09:12:24.929Z,29.80
2018-05-26T09:14:52.425Z,29.80
2018-05-26T09:17:20.600Z,29.70
2018-05-26T09:19:48.829Z,29.50
2018-05-26T09:22:17.057Z,29.40
2018-05-26T09:24:45.293Z,29.00
2018-05-26T09:27:12.760Z,29.00
2018-05-26T09:29:40.203Z,28.90
2018-05-26T09:32:07.669Z,28.80
2018-05-26T09:34:35.123Z,28.60
2018-05-26T09:37:02.576Z,28.50
2018-05-26T09:39:30.032Z,28.40
2018-05-26T09:41:57.496Z,28.30
2018-05-26T09:44:24.965Z,28.20
2018-05-26T09:46:52.429Z,28.10
2018-05-26T09:49:19.907Z,28.10
2018-05-26T09:51:47.371Z,28.00
2018-05-26T09:54:14.816Z,27.80
2018-05-26T09:56:43.044Z,27.50
2018-05-26T09:59:10.499Z,27.40
2018-05-26T10:01:37.956Z,27.40
2018-05-26T10:04:05.411Z,27.30
2018-05-26T10:06:32.879Z,27.20
2018-05-26T10:09:00.328Z,26.90
2018-05-26T10:11:27.788Z,26.80
2018-05-26T10:13:55.241Z,26.70
2018-05-26T10:16:22.700Z,26.70
2018-05-26T10:18:50.155Z,26.50
2018-05-26T10:21:17.619Z,26.40
2018-05-26T10:23:45.840Z,26.20
2018-05-26T10:26:13.635Z,26.20
2018-05-26T10:28:41.048Z,26.10
2018-05-26T10:31:08.507Z,26.00
2018-05-26T10:33:35.973Z,25.90
2018-05-26T10:36:03.424Z,25.80
2018-05-26T10:38:30.876Z,25.60
2018-05-26T10:40:59.088Z,25.50
2018-05-26T10:43:26.570Z,25.50
2018-05-26T10:46:05.711Z,25.40
2018-05-26T10:48:33.175Z,25.20
2018-05-26T10:51:00.637Z,25.10
2018-05-26T10:53:28.096Z,25.00
2018-05-26T10:55:55.576Z,24.90
2018-05-26T10:58:23.011Z,25.30
2018-05-26T11:00:50.487Z,24.70
2018-05-26T11:03:17.929Z,24.60
2018-05-26T11:05:45.392Z,24.60
2018-05-26T11:08:12.856Z,24.40
2018-05-26T11:10:41.076Z,24.30
2018-05-26T11:13:08.535Z,24.20
2018-05-26T11:15:36.788Z,24.00
2018-05-26T11:18:05.142Z,23.90
2018-05-26T11:20:32.485Z,24.00
2018-05-26T11:22:59.960Z,23.90
2018-05-26T11:25:27.421Z,23.70
2018-05-26T11:27:56.423Z,21.30
2018-05-26T11:30:23.885Z,21.30
2018-05-26T11:32:52.127Z,19.10
2018-05-26T11:35:19.601Z,19.00
2018-05-26T11:37:47.062Z,18.10
2018-05-26T11:40:14.514Z,17.40
2018-05-26T11:42:41.978Z,16.60
2018-05-26T11:45:09.435Z,16.00
2018-05-26T11:47:36.901Z,15.30
2018-05-26T11:50:04.349Z,15.00
2018-05-26T11:52:31.816Z,14.60
2018-05-26T11:54:59.260Z,15.00
2018-05-26T11:57:26.728Z,14.30
2018-05-26T11:59:54.187Z,14.30
2018-05-26T12:02:21.648Z,13.90
2018-05-26T12:04:49.874Z,14.00
2018-05-26T12:07:17.351Z,13.40
2018-05-26T12:09:44.809Z,13.60
2018-05-26T12:12:12.264Z,13.20
2018-05-26T12:14:39.726Z,13.10
2018-05-26T12:17:07.189Z,13.00
2018-05-26T12:19:34.655Z,12.90
2018-05-26T12:22:02.894Z,12.80
2018-05-26T12:24:30.348Z,12.80
2018-05-26T12:26:57.833Z,12.80
2018-05-26T12:29:25.264Z,12.70
2018-05-26T12:31:52.724Z,12.50
2018-05-26T12:34:20.948Z,12.60
2018-05-26T12:36:49.176Z,12.50
2018-05-26T12:39:16.665Z,12.50
2018-05-26T12:41:44.974Z,12.50
2018-05-26T12:44:13.201Z,14.00
2018-05-26T12:46:40.668Z,13.90
2018-05-26T12:49:08.893Z,16.90
2018-05-26T12:51:36.351Z,16.90
2018-05-26T12:54:03.817Z,18.30
2018-05-26T12:56:32.040Z,16.40
2018-05-26T12:58:59.511Z,16.90
2018-05-26T13:01:26.976Z,15.10
2018-05-26T13:03:55.226Z,14.00
2018-05-26T13:06:22.688Z,13.90
2018-05-26T13:08:50.919Z,14.90
2018-05-26T13:11:18.355Z,14.80
2018-05-26T13:13:46.576Z,13.50
2018-05-26T13:16:14.044Z,13.40
2018-05-26T13:18:41.505Z,13.20
2018-05-26T13:21:09.716Z,12.60
2018-05-26T13:23:37.956Z,12.50
2018-05-26T13:26:05.417Z,12.50
2018-05-26T13:28:32.886Z,12.70
2018-05-26T13:31:00.340Z,12.60
2018-05-26T13:33:27.807Z,13.90
2018-05-26T13:35:55.268Z,14.20
2018-05-26T13:38:22.728Z,13.60
2018-05-26T13:40:50.175Z,13.30
2018-05-26T13:43:17.628Z,12.90
2018-05-26T13:45:45.100Z,12.70
2018-05-26T13:48:12.557Z,12.50
2018-05-26T13:50:40.063Z,12.50
2018-05-26T13:53:09.026Z,12.80
2018-05-26T13:55:36.563Z,12.70
2018-05-26T13:58:03.924Z,12.70
2018-05-26T14:00:32.148Z,12.70
2018-05-26T14:02:59.608Z,12.80
2018-05-26T14:05:27.832Z,13.40
2018-05-26T14:07:55.290Z,13.40
2018-05-26T14:10:22.747Z,14.10
2018-05-26T14:12:50.199Z,14.80
2018-05-26T14:15:17.667Z,15.80
2018-05-26T14:17:45.125Z,16.50
2018-05-26T14:20:13.376Z,17.90
2018-05-26T14:22:40.848Z,17.80
2018-05-26T14:25:08.296Z,18.50
2018-05-26T14:27:36.542Z,19.40
2018-05-26T14:30:04.021Z,19.40
2018-05-26T14:32:31.480Z,19.90
2018-05-26T14:34:58.943Z,20.30
2018-05-26T14:37:26.403Z,20.80
2018-05-26T14:39:53.860Z,21.10
2018-05-26T14:42:21.327Z,21.20
2018-05-26T14:44:48.784Z,21.20
2018-05-26T14:47:16.235Z,21.40
2018-05-26T14:49:43.717Z,21.50
2018-05-26T14:52:11.161Z,21.60
2018-05-26T14:54:38.615Z,21.70
2018-05-26T14:57:06.072Z,21.90
2018-05-26T14:59:33.548Z,22.10
2018-05-26T15:02:01.757Z,22.10
2018-05-26T15:04:29.228Z,22.10
2018-05-26T15:06:56.688Z,22.10
2018-05-26T15:09:24.161Z,22.20
2018-05-26T15:11:51.618Z,22.30
2018-05-26T15:14:19.841Z,23.20
2018-05-26T15:16:47.299Z,22.60
2018-05-26T15:19:14.816Z,22.80
2018-05-26T15:21:42.271Z,23.00
2018-05-26T15:24:09.748Z,23.30
2018-05-26T15:26:37.200Z,23.40
2018-05-26T15:29:04.660Z,23.50
2018-05-26T15:31:32.104Z,23.50
2018-05-26T15:33:59.568Z,23.80
2018-05-26T15:36:27.032Z,23.90
2018-05-26T15:38:54.487Z,24.00
2018-05-26T15:41:21.945Z,24.20
2018-05-26T15:43:49.403Z,24.30
2018-05-26T15:46:16.864Z,24.30
2018-05-26T15:48:45.095Z,24.50
2018-05-26T15:51:12.559Z,24.50
2018-05-26T15:53:40.775Z,24.50
2018-05-26T15:56:09.001Z,24.60
2018-05-26T15:58:36.466Z,24.60
2018-05-26T16:01:03.923Z,24.50
2018-05-26T16:03:31.369Z,24.50
2018-05-26T16:05:59.592Z,24.60
2018-05-26T16:08:27.053Z,25.10
2018-05-26T16:10:54.505Z,24.50
2018-05-26T16:13:22.712Z,24.60
2018-05-26T16:15:50.164Z,24.50
2018-05-26T16:18:18.384Z,24.80
2018-05-26T16:20:46.608Z,24.90
2018-05-26T16:23:14.828Z,24.80
2018-05-26T16:25:42.295Z,24.90
2018-05-26T16:28:09.757Z,25.00
2018-05-26T16:30:37.210Z,25.00
2018-05-26T16:33:04.658Z,25.10
2018-05-26T16:35:32.875Z,25.30
2018-05-26T16:38:01.100Z,25.40
2018-05-26T16:40:28.569Z,25.30
2018-05-26T16:42:56.777Z,25.50
2018-05-26T16:45:24.295Z,25.40
2018-05-26T16:47:51.692Z,25.60
2018-05-26T16:50:19.156Z,25.70
2018-05-26T16:52:46.615Z,25.70
2018-05-26T16:55:14.070Z,25.80
2018-05-26T16:57:41.526Z,25.80
2018-05-26T17:00:08.985Z,25.90
2018-05-26T17:02:37.947Z,26.00
2018-05-26T17:05:05.416Z,26.00
2018-05-26T17:07:32.875Z,26.10
2018-05-26T17:10:00.365Z,26.10
2018-05-26T17:12:28.586Z,26.30
2018-05-26T17:14:56.824Z,26.20
2018-05-26T17:17:24.345Z,26.20
2018-05-26T17:19:51.796Z,26.30
2018-05-26T17:22:19.271Z,26.50
2018-05-26T17:24:48.229Z,26.60
2018-05-26T17:27:15.708Z,26.60
2018-05-26T17:29:43.168Z,26.70
2018-05-26T17:32:10.624Z,26.70
2018-05-26T17:34:38.082Z,26.80
2018-05-26T17:37:05.541Z,26.80
2018-05-26T17:39:32.997Z,26.90
2018-05-26T17:42:00.457Z,26.90
2018-05-26T17:44:28.676Z,27.10
2018-05-26T17:46:56.131Z,27.10
2018-05-26T17:49:23.584Z,27.20
2018-05-26T17:51:51.803Z,27.40
2018-05-26T17:54:19.263Z,27.30
2018-05-26T17:56:47.678Z,27.40
2018-05-26T17:59:15.916Z,27.50
2018-05-26T18:01:43.382Z,27.50
2018-05-26T18:04:10.836Z,27.50
2018-05-26T18:06:38.301Z,27.60
2018-05-26T18:09:05.745Z,27.70
2018-05-26T18:11:33.211Z,27.70
2018-05-26T18:14:00.668Z,27.80
2018-05-26T18:16:28.143Z,27.90
2018-05-26T18:18:55.607Z,27.80
2018-05-26T18:21:23.067Z,28.00
2018-05-26T18:23:50.523Z,28.10
2018-05-26T18:26:19.488Z,28.10
2018-05-26T18:28:46.947Z,28.20
2018-05-26T18:31:14.399Z,28.20
2018-05-26T18:33:42.611Z,28.40
2018-05-26T18:36:10.075Z,28.30
2018-05-26T18:38:37.523Z,28.40
2018-05-26T18:41:04.986Z,28.50
2018-05-26T18:43:32.436Z,28.60
2018-05-26T18:45:59.888Z,28.70
2018-05-26T18:48:28.099Z,28.80
2018-05-26T18:50:55.539Z,28.70
2018-05-26T18:53:23.760Z,28.90
2018-05-26T18:55:51.227Z,28.90
2018-05-26T18:58:18.687Z,29.00
2018-05-26T19:00:46.131Z,29.10
2018-05-26T19:03:13.605Z,29.20
2018-05-26T19:05:41.064Z,29.20
2018-05-26T19:08:08.528Z,29.30
2018-05-26T19:10:35.984Z,29.40
2018-05-26T19:13:03.454Z,29.40
2018-05-26T19:15:30.887Z,29.50
2018-05-26T19:17:58.348Z,29.60
2018-05-26T19:20:25.803Z,29.60
2018-05-26T19:22:53.255Z,29.70
2018-05-26T19:25:20.736Z,29.80
2018-05-26T19:27:48.952Z,29.90
2018-05-26T19:30:17.208Z,30.00
2018-05-26T19:32:45.445Z,30.00
2018-05-26T19:35:13.656Z,30.10
2018-05-26T19:37:41.892Z,30.20
2018-05-26T19:40:09.344Z,30.20
2018-05-26T19:42:36.812Z,30.20
2018-05-26T19:45:04.264Z,31.00
2018-05-26T19:47:31.723Z,30.40
2018-05-26T19:49:59.194Z,30.40
2018-05-26T19:52:26.641Z,30.50
2018-05-26T19:54:54.099Z,30.60
2018-05-26T19:57:21.580Z,30.70
2018-05-26T19:59:49.023Z,30.80
2018-05-26T20:02:16.483Z,30.80
2018-05-26T20:04:43.943Z,30.90
2018-05-26T20:07:12.176Z,31.00
2018-05-26T20:09:39.619Z,31.00
2018-05-26T20:12:07.847Z,31.20
2018-05-26T20:14:35.289Z,31.20
2018-05-26T20:17:02.748Z,31.30
2018-05-26T20:19:30.961Z,31.40
2018-05-26T20:21:58.416Z,31.40
2018-05-26T20:24:25.872Z,31.50
2018-05-26T20:26:53.323Z,31.60
2018-05-26T20:29:21.541Z,31.70
2018-05-26T20:31:48.999Z,31.70
2018-05-26T20:34:17.221Z,31.80
2018-05-26T20:36:44.675Z,31.90
2018-05-26T20:39:12.136Z,31.90
2018-05-26T20:41:39.592Z,32.00
2018-05-26T20:44:07.052Z,32.00
2018-05-26T20:46:34.507Z,32.10
2018-05-26T20:49:01.976Z,32.10
2018-05-26T20:51:29.420Z,32.20
2018-05-26T20:53:56.893Z,32.30
2018-05-26T20:56:24.337Z,32.30
2018-05-26T20:58:51.805Z,32.40
2018-05-26T21:01:19.252Z,32.40
2018-05-26T21:03:46.720Z,32.40
2018-05-26T21:06:14.168Z,32.50
2018-05-26T21:08:41.625Z,32.60
2018-05-26T21:11:09.083Z,32.70
2018-05-26T21:13:36.547Z,32.70
2018-05-26T21:16:04.006Z,32.70
2018-05-26T21:18:31.463Z,32.80
2018-05-26T21:20:58.912Z,32.80
2018-05-26T21:23:26.389Z,32.90
2018-05-26T21:25:53.827Z,33.00
2018-05-26T21:28:21.304Z,33.00
2018-05-26T21:30:48.740Z,33.00
2018-05-26T21:33:16.208Z,33.10
2018-05-26T21:35:43.654Z,33.10
2018-05-26T21:38:11.124Z,33.20
2018-05-26T21:40:39.327Z,33.40
2018-05-26T21:43:07.561Z,33.60
2018-05-26T21:45:35.032Z,33.40
2018-05-26T21:48:02.487Z,33.40
2018-05-26T21:50:29.944Z,33.50
2018-05-26T21:52:57.403Z,33.60
2018-05-26T21:55:24.851Z,33.60
2018-05-26T21:57:52.324Z,33.70
2018-05-26T22:00:19.763Z,33.80
2018-05-26T22:02:47.236Z,33.80
2018-05-26T22:05:14.682Z,33.90
2018-05-26T22:07:42.148Z,34.00
2018-05-26T22:10:09.606Z,34.00
2018-05-26T22:12:37.047Z,34.00
2018-05-26T22:15:04.512Z,34.10
2018-05-26T22:17:32.739Z,34.20
2018-05-26T22:20:00.967Z,34.20
2018-05-26T22:22:28.429Z,34.20
2018-05-26T22:24:55.908Z,34.30
2018-05-26T22:27:23.352Z,34.30
2018-05-26T22:29:50.810Z,34.30
2018-05-26T22:32:18.268Z,34.30
2018-05-26T22:34:45.724Z,34.50
2018-05-26T22:37:13.172Z,34.30
2018-05-26T22:39:40.631Z,34.40
2018-05-26T22:42:08.089Z,34.30
2018-05-26T22:44:35.544Z,34.40
2018-05-26T22:47:03.010Z,34.70
2018-05-26T22:49:30.460Z,34.80
2018-05-26T22:51:57.919Z,34.70
2018-05-26T22:54:25.386Z,34.70
2018-05-26T22:56:53.617Z,34.90
2018-05-26T22:59:21.087Z,34.90
2018-05-26T23:01:48.540Z,35.00
2018-05-26T23:04:15.996Z,34.90
2018-05-26T23:06:43.461Z,35.00
2018-05-26T23:09:10.943Z,35.10
2018-05-26T23:11:38.389Z,35.00
2018-05-26T23:14:05.862Z,35.10
2018-05-26T23:16:33.314Z,35.10
2018-05-26T23:19:00.778Z,35.30
2018-05-26T23:21:28.228Z,35.10
2018-05-26T23:23:55.688Z,35.20
2018-05-26T23:26:23.175Z,35.20
2018-05-26T23:28:51.404Z,35.20
2018-05-26T23:31:18.863Z,35.20
2018-05-26T23:33:46.328Z,35.30
2018-05-26T23:36:13.775Z,35.30
2018-05-26T23:38:41.995Z,35.30
2018-05-26T23:41:10.216Z,35.30
2018-05-26T23:43:37.671Z,35.20
2018-05-26T23:46:05.154Z,35.40
2018-05-26T23:48:32.625Z,35.50
2018-05-26T23:51:00.057Z,35.50
2018-05-26T23:53:27.529Z,35.50
2018-05-26T23:55:54.975Z,35.60
2018-05-26T23:58:22.432Z,35.70
